Time;durP1;ratioP1;P1;durP2;ratioP2;P2;SDS_P1;SDS_P2;PMS_P1;PMS_P2;Temp;Humidity;BMP_temperature;BMP_pressure;BME280_temperature;BME280_humidity;BME280_pressure;Samples;Min_cycle;Max_cycle;Signal;HPM_P1;HPM_P2
2023/01/23 00:01:09;;;;;;;;;28.00;22.75;;;;;5.70;100.00;103045.19;4989858;28;45479;-70
2023/01/23 00:03:34;;;;;;;;;31.25;25.75;;;;;5.71;100.00;103027.75;4977239;28;45511;-71
2023/01/23 00:06:03;;;;;;;;;32.75;24.00;;;;;5.71;100.00;103028.66;4976477;28;60334;-70
2023/01/23 00:08:28;;;;;;;;;31.25;25.50;;;;;5.69;100.00;103019.78;4973618;28;45310;-72
2023/01/23 00:10:54;;;;;;;;;26.00;21.50;;;;;5.70;100.00;103026.84;4976895;28;45380;-71
2023/01/23 00:13:19;;;;;;;;;31.25;21.75;;;;;5.69;100.00;103022.38;4976177;28;45578;-70
2023/01/23 00:15:45;;;;;;;;;28.00;19.75;;;;;5.69;100.00;103029.34;4971542;28;46305;-70
2023/01/23 00:18:10;;;;;;;;;29.50;25.00;;;;;5.68;100.00;103028.44;4976152;28;45519;-70
2023/01/23 00:20:37;;;;;;;;;32.00;25.50;;;;;5.65;100.00;103028.25;4976496;28;55896;-70
2023/01/23 00:23:02;;;;;;;;;24.50;18.25;;;;;5.65;100.00;103029.97;4976273;28;45626;-71
2023/01/23 00:25:28;;;;;;;;;31.50;24.50;;;;;5.69;100.00;103030.25;4976761;28;45476;-70
2023/01/23 00:27:53;;;;;;;;;28.00;22.50;;;;;5.71;100.00;103028.66;4971114;28;45362;-70
2023/01/23 00:30:18;;;;;;;;;30.75;20.75;;;;;5.72;100.00;103034.81;4975084;28;56955;-70
2023/01/23 00:32:44;;;;;;;;;32.00;22.25;;;;;5.74;100.00;103034.09;4976324;28;45393;-71
2023/01/23 00:35:09;;;;;;;;;36.25;22.50;;;;;5.74;100.00;103027.94;4975347;28;55192;-72
2023/01/23 00:37:34;;;;;;;;;35.75;26.25;;;;;5.75;100.00;103033.31;4975780;28;45607;-69
2023/01/23 00:40:00;;;;;;;;;27.50;20.50;;;;;5.72;100.00;103027.84;4976319;28;45414;-70
2023/01/23 00:42:25;;;;;;;;;32.75;24.50;;;;;5.72;100.00;103034.81;4974674;28;45749;-71
2023/01/23 00:44:50;;;;;;;;;18.50;14.00;;;;;5.69;100.00;103034.59;4979051;28;61645;-71
2023/01/23 00:47:16;;;;;;;;;29.75;23.25;;;;;5.67;100.00;103031.88;4972502;28;46077;-70
2023/01/23 00:49:42;;;;;;;;;32.25;21.50;;;;;5.66;100.00;103037.94;4976374;28;45471;-70
2023/01/23 00:52:08;;;;;;;;;29.75;20.75;;;;;5.68;100.00;103041.53;4976513;28;45286;-71
2023/01/23 00:54:33;;;;;;;;;34.50;26.25;;;;;5.71;100.00;103030.38;4971731;28;62742;-70
2023/01/23 00:56:59;;;;;;;;;31.25;21.50;;;;;5.72;100.00;103033.09;4973299;28;45412;-71
2023/01/23 00:59:24;;;;;;;;;32.25;25.75;;;;;5.74;100.00;103033.19;4976073;28;45298;-73
2023/01/23 01:01:49;;;;;;;;;24.00;16.00;;;;;5.75;100.00;103032.38;4964926;28;45552;-71
2023/01/23 01:04:15;;;;;;;;;34.75;26.25;;;;;5.75;100.00;103032.38;4977135;28;46559;-70
2023/01/23 01:06:40;;;;;;;;;30.75;25.00;;;;;5.74;100.00;103034.09;4973766;28;45624;-70
2023/01/23 01:09:06;;;;;;;;;38.50;30.75;;;;;5.71;100.00;103027.75;4976389;28;45252;-70
2023/01/23 01:11:31;;;;;;;;;27.25;24.75;;;;;5.70;100.00;103025.91;4973709;28;55761;-73
2023/01/23 01:13:56;;;;;;;;;46.25;31.75;;;;;5.69;100.00;103029.34;4974079;28;52381;-72
2023/01/23 01:16:23;;;;;;;;;43.50;35.25;;;;;5.72;100.00;103033.09;4972079;28;46461;-72
2023/01/23 01:18:49;;;;;;;;;43.00;34.75;;;;;5.72;100.00;103033.09;4969446;28;45171;-70
2023/01/23 01:21:14;;;;;;;;;35.00;28.00;;;;;5.72;100.00;103030.47;4968808;28;45321;-70
2023/01/23 01:23:40;;;;;;;;;30.50;26.50;;;;;5.73;100.00;103031.38;4975599;28;45723;-70
2023/01/23 01:26:06;;;;;;;;;40.25;32.50;;;;;5.73;100.00;103024.41;4971748;28;45426;-73
2023/01/23 01:28:35;;;;;;;;;54.00;36.25;;;;;5.70;100.00;103016.38;4968608;28;45257;-73
2023/01/23 01:31:06;;;;;;;;;42.50;32.25;;;;;5.71;100.00;103022.50;4974893;28;45593;-72
2023/01/23 01:33:33;;;;;;;;;50.00;31.50;;;;;5.69;100.00;103022.38;4976896;28;46684;-70
2023/01/23 01:35:59;;;;;;;;;50.00;41.75;;;;;5.70;100.00;103020.66;4969064;28;45399;-71
2023/01/23 01:38:24;;;;;;;;;34.75;29.25;;;;;5.72;100.00;103024.31;4979279;28;45431;-71
2023/01/23 01:40:50;;;;;;;;;44.75;27.50;;;;;5.73;100.00;103013.03;4978827;28;45379;-74
2023/01/23 01:43:22;;;;;;;;;26.50;19.50;;;;;5.72;100.00;103011.22;4981069;28;55919;-69
2023/01/23 01:46:05;;;;;;;;;31.75;26.50;;;;;5.74;100.00;103017.47;4978611;28;45651;-71
2023/01/23 01:48:48;;;;;;;;;38.50;29.75;;;;;5.73;100.00;103007.78;4972328;28;45468;-72
2023/01/23 01:51:18;;;;;;;;;46.50;37.25;;;;;5.72;100.00;103019.09;4979374;28;45495;-72
2023/01/23 01:53:46;;;;;;;;;30.00;27.00;;;;;5.70;100.00;103020.66;4974257;28;45341;-70
2023/01/23 01:56:12;;;;;;;;;42.25;28.50;;;;;5.66;100.00;103002.97;4978616;28;45533;-71
2023/01/23 01:58:39;;;;;;;;;30.50;22.75;;;;;5.67;100.00;103008.28;4973288;28;45496;-70
2023/01/23 02:01:04;;;;;;;;;30.50;23.50;;;;;5.69;100.00;103009.28;4991938;28;52715;-72
2023/01/23 02:03:30;;;;;;;;;41.75;26.75;;;;;5.71;100.00;103012.03;4975890;28;58459;-72
2023/01/23 02:05:55;;;;;;;;;30.75;21.25;;;;;5.71;100.00;103010.31;4977479;28;56164;-71
2023/01/23 02:08:31;;;;;;;;;25.50;22.00;;;;;5.73;100.00;103013.03;4976836;28;56654;-70
2023/01/23 02:10:56;;;;;;;;;35.25;23.25;;;;;5.72;100.00;103003.34;4981031;28;45639;-70
2023/01/23 02:13:37;;;;;;;;;35.00;25.75;;;;;5.72;100.00;103006.88;4973940;28;45747;-71
2023/01/23 02:16:17;;;;;;;;;24.50;21.25;;;;;5.70;100.00;103007.56;4977486;28;45448;-70
2023/01/23 02:18:46;;;;;;;;;25.00;16.75;;;;;5.69;100.00;103009.28;4969913;28;45383;-72
2023/01/23 02:21:13;;;;;;;;;42.50;31.50;;;;;5.71;100.00;103004.16;4969257;28;45303;-71
2023/01/23 02:24:11;;;;;;;;;29.75;23.75;;;;;5.73;100.00;103007.78;4977733;28;45958;-70
2023/01/23 02:26:40;;;;;;;;;40.00;32.75;;;;;5.72;100.00;103004.25;4978731;28;45290;-70
2023/01/23 02:29:06;;;;;;;;;46.75;35.50;;;;;5.74;100.00;103009.59;4975885;28;45511;-69
2023/01/23 02:31:32;;;;;;;;;31.50;21.50;;;;;5.76;100.00;103008.00;4978798;28;45330;-71
2023/01/23 02:33:58;;;;;;;;;34.50;26.00;;;;;5.74;100.00;103005.25;4976718;28;46686;-69
2023/01/23 02:36:28;;;;;;;;;20.50;17.50;;;;;5.74;100.00;103005.25;4978995;28;45211;-73
2023/01/23 02:39:15;;;;;;;;;33.75;23.00;;;;;5.74;100.00;103004.34;4977709;28;47030;-72
2023/01/23 02:41:45;;;;;;;;;36.75;26.75;;;;;5.71;100.00;103002.44;4977103;28;45863;-73
2023/01/23 02:44:26;;;;;;;;;29.75;23.00;;;;;5.71;100.00;103015.56;4978144;28;48454;-70
2023/01/23 02:46:56;;;;;;;;;37.50;27.75;;;;;5.70;100.00;103016.38;4969743;28;45434;-71
2023/01/23 02:49:22;;;;;;;;;33.75;26.25;;;;;5.69;100.00;103013.63;4970148;28;46030;-72
2023/01/23 02:51:48;;;;;;;;;48.50;37.50;;;;;5.72;100.00;103029.56;4973525;28;45341;-69
2023/01/23 02:54:14;;;;;;;;;48.00;32.50;;;;;5.72;100.00;103019.97;4969676;28;47553;-70
2023/01/23 02:56:41;;;;;;;;;35.50;31.00;;;;;5.72;100.00;103025.22;4977635;28;45463;-73
2023/01/23 03:01:50;;;;;;;;;30.50;22.50;;;;;5.73;100.00;103019.16;4978141;28;45357;-73
2023/01/23 03:04:16;;;;;;;;;31.75;23.00;;;;;5.74;100.00;103028.84;4978775;28;47358;-70
2023/01/23 03:06:41;;;;;;;;;38.25;24.25;;;;;5.72;100.00;103022.59;4979176;28;45385;-70
2023/01/23 03:09:10;;;;;;;;;21.75;20.50;;;;;5.69;100.00;103022.38;4975175;28;55454;-71
2023/01/23 03:11:37;;;;;;;;;36.25;23.75;;;;;5.69;100.00;103030.25;4977790;28;45401;-72
2023/01/23 03:14:05;;;;;;;;;41.00;26.75;;;;;5.71;100.00;103027.75;4962374;28;46757;-71
2023/01/23 03:16:31;;;;;;;;;35.50;25.00;;;;;5.72;100.00;103030.47;4993255;28;45492;-71
2023/01/23 03:18:58;;;;;;;;;35.50;24.25;;;;;5.74;100.00;103027.94;4974153;28;45341;-70
2023/01/23 03:21:23;;;;;;;;;40.75;26.50;;;;;5.76;100.00;103022.00;4978544;28;45551;-70
2023/01/23 03:23:49;;;;;;;;;44.50;31.50;;;;;5.74;100.00;103020.97;4977406;28;45763;-74
2023/01/23 03:26:14;;;;;;;;;34.50;25.00;;;;;5.73;100.00;103021.78;4977640;28;45428;-71
2023/01/23 03:31:24;;;;;;;;;33.00;28.50;;;;;5.71;100.00;103019.91;4976532;28;45336;-70
2023/01/23 03:33:49;;;;;;;;;32.75;24.00;;;;;5.70;100.00;103021.63;4976248;28;45522;-71
2023/01/23 03:36:15;;;;;;;;;38.50;31.50;;;;;5.72;100.00;103021.69;4977436;28;45445;-70
2023/01/23 03:41:23;;;;;;;;;35.00;27.75;;;;;5.74;100.00;103025.31;4974618;28;46683;-72
2023/01/23 03:41:26;;;;;;;;;39.00;29.75;;;;;5.75;100.00;103014.03;4974916;28;45547;-70
2023/01/23 03:43:51;;;;;;;;;42.50;29.00;;;;;5.76;100.00;103019.38;4978898;28;46655;-74
2023/01/23 03:46:16;;;;;;;;;40.75;28.00;;;;;5.78;100.00;103024.72;4977018;28;54329;-73
2023/01/23 03:48:42;;;;;;;;;26.75;24.50;;;;;5.78;100.00;103020.38;4976895;28;51537;-70
2023/01/23 03:51:07;;;;;;;;;34.50;27.25;;;;;5.77;100.00;103020.28;4976641;28;45512;-71
2023/01/23 03:53:33;;;;;;;;;28.50;23.25;;;;;5.75;100.00;103022.81;4974401;28;63457;-70
2023/01/23 03:55:58;;;;;;;;;34.25;25.25;;;;;5.72;100.00;103019.09;4984869;28;60045;-69
2023/01/23 03:58:23;;;;;;;;;45.75;31.50;;;;;5.73;100.00;103013.94;4970452;28;55802;-72
2023/01/23 04:00:49;;;;;;;;;38.50;25.75;;;;;5.75;100.00;103011.41;4975119;28;45395;-70
2023/01/23 04:03:14;;;;;;;;;38.00;28.00;;;;;5.73;100.00;103006.06;4977034;28;46286;-72
2023/01/23 04:05:39;;;;;;;;;28.00;18.25;;;;;5.75;100.00;103004.47;4977028;28;45436;-70
2023/01/23 04:08:05;;;;;;;;;34.75;24.50;;;;;5.74;100.00;103005.25;4979877;28;54163;-71
2023/01/23 04:10:30;;;;;;;;;31.75;22.25;;;;;5.75;100.00;103007.09;4969420;28;45478;-70
2023/01/23 04:12:55;;;;;;;;;32.00;28.50;;;;;5.76;100.00;103016.75;4976229;28;61821;-70
2023/01/23 04:15:21;;;;;;;;;30.75;22.75;;;;;5.74;100.00;103015.75;4976900;28;46545;-72
2023/01/23 04:17:46;;;;;;;;;31.50;26.50;;;;;5.72;100.00;103016.47;4976347;28;45495;-73
2023/01/23 04:20:12;;;;;;;;;37.75;23.00;;;;;5.74;100.00;103022.69;4975298;28;45493;-71
2023/01/23 04:22:38;;;;;;;;;31.25;21.75;;;;;5.75;100.00;103027.13;4976452;28;45483;-71
2023/01/23 04:25:04;;;;;;;;;33.50;25.75;;;;;5.76;100.00;103019.38;4973415;28;63253;-70
2023/01/23 04:27:30;;;;;;;;;35.75;26.25;;;;;5.77;100.00;103018.56;4970972;28;45411;-71
2023/01/23 04:29:57;;;;;;;;;41.50;28.25;;;;;5.81;100.00;103022.31;4974657;28;45510;-70
2023/01/23 04:32:22;;;;;;;;;33.75;25.25;;;;;5.82;100.00;103026.75;4965837;28;46578;-70
2023/01/23 04:34:48;;;;;;;;;26.75;24.00;;;;;5.80;100.00;103020.47;4972224;28;45306;-70
2023/01/23 04:37:13;;;;;;;;;37.75;24.25;;;;;5.81;100.00;103029.28;4975863;28;54927;-70
2023/01/23 04:39:38;;;;;;;;;36.25;26.00;;;;;5.81;100.00;103021.41;4973639;28;53481;-73
2023/01/23 04:42:04;;;;;;;;;33.00;25.00;;;;;5.76;100.00;103022.00;4972434;28;62366;-70
2023/01/23 04:44:29;;;;;;;;;32.00;24.00;;;;;5.74;100.00;103030.56;4970435;28;50863;-70
2023/01/23 04:46:54;;;;;;;;;31.00;21.75;;;;;5.74;100.00;103038.41;4976442;28;55587;-70
2023/01/23 04:49:21;;;;;;;;;32.00;26.00;;;;;5.74;100.00;103038.41;4969415;28;51673;-71
2023/01/23 04:51:48;;;;;;;;;33.25;24.50;;;;;5.76;100.00;103045.59;4976227;28;47201;-72
2023/01/23 04:54:14;;;;;;;;;38.50;27.75;;;;;5.74;100.00;103039.31;4979521;28;45476;-70
2023/01/23 04:56:40;;;;;;;;;28.75;24.25;;;;;5.71;100.00;103028.66;4968101;28;45279;-73
2023/01/23 04:59:06;;;;;;;;;41.75;25.50;;;;;5.75;100.00;103040.22;4975337;28;45628;-71
2023/01/23 05:01:32;;;;;;;;;36.25;20.25;;;;;5.76;100.00;103036.84;4975318;28;58458;-71
2023/01/23 05:03:57;;;;;;;;;31.50;27.00;;;;;5.76;100.00;103034.22;4973310;28;45713;-70
2023/01/23 05:06:22;;;;;;;;;34.00;25.00;;;;;5.77;100.00;103034.31;4975915;28;45456;-71
2023/01/23 05:08:48;;;;;;;;;40.75;25.25;;;;;5.74;100.00;103025.31;4975046;28;45531;-70
2023/01/23 05:11:13;;;;;;;;;34.25;23.75;;;;;5.75;100.00;103035.00;4976275;28;59661;-70
2023/01/23 05:13:38;;;;;;;;;38.50;26.50;;;;;5.73;100.00;103034.91;4973999;28;45451;-70
2023/01/23 05:16:04;;;;;;;;;29.00;24.00;;;;;5.74;100.00;103036.72;4975172;28;45508;-71
2023/01/23 05:18:29;;;;;;;;;18.25;12.00;;;;;5.77;100.00;103038.63;4975127;28;45758;-72
2023/01/23 05:20:55;;;;;;;;;35.00;31.00;;;;;5.79;100.00;103042.25;4975151;28;60553;-73
2023/01/23 05:23:20;;;;;;;;;35.00;25.00;;;;;5.82;100.00;103049.44;4974024;28;57661;-70
2023/01/23 05:25:45;;;;;;;;;45.25;30.00;;;;;5.81;100.00;103053.78;4968298;28;57756;-70
2023/01/23 05:28:11;;;;;;;;;34.50;22.50;;;;;5.78;100.00;103046.59;4975121;28;45476;-70
2023/01/23 05:30:36;;;;;;;;;38.50;27.25;;;;;5.76;100.00;103058.72;4969348;28;45425;-70
2023/01/23 05:33:02;;;;;;;;;33.25;27.50;;;;;5.77;100.00;103049.13;4975146;28;59018;-70
2023/01/23 05:35:27;;;;;;;;;39.25;27.75;;;;;5.79;100.00;103057.97;4975287;28;45444;-71
2023/01/23 05:37:53;;;;;;;;;30.00;28.75;;;;;5.80;100.00;103054.56;4976041;28;45432;-70
2023/01/23 05:40:19;;;;;;;;;34.25;23.75;;;;;5.80;100.00;103057.16;4975159;28;46510;-71
2023/01/23 05:42:45;;;;;;;;;43.75;28.50;;;;;5.78;100.00;103067.56;4975466;28;45358;-73
2023/01/23 05:45:11;;;;;;;;;36.00;28.25;;;;;5.77;100.00;103060.50;4968681;28;45436;-71
2023/01/23 05:47:37;;;;;;;;;39.50;28.50;;;;;5.77;100.00;103064.84;4971939;28;45472;-70
2023/01/23 05:50:03;;;;;;;;;30.00;22.75;;;;;5.77;100.00;103081.50;4963527;28;47432;-73
2023/01/23 05:52:28;;;;;;;;;35.75;28.75;;;;;5.74;100.00;103075.13;4977089;28;45584;-70
2023/01/23 05:54:54;;;;;;;;;39.25;25.00;;;;;5.75;100.00;103083.13;4975207;28;45429;-70
2023/01/23 05:57:19;;;;;;;;;39.25;27.00;;;;;5.75;100.00;103079.56;4972864;28;45357;-69
2023/01/23 05:59:44;;;;;;;;;28.25;21.50;;;;;5.76;100.00;103081.41;4972859;28;64343;-70
2023/01/23 06:02:10;;;;;;;;;30.25;25.50;;;;;5.78;100.00;103083.28;4974450;28;46963;-71
2023/01/23 06:04:35;;;;;;;;;31.25;24.25;;;;;5.80;100.00;103080.75;4974080;28;57332;-72
2023/01/23 06:07:01;;;;;;;;;38.25;29.50;;;;;5.79;100.00;103079.88;4977833;28;45357;-70
2023/01/23 06:09:26;;;;;;;;;29.75;25.25;;;;;5.82;100.00;103091.38;4974913;28;60050;-70
2023/01/23 06:11:51;;;;;;;;;29.25;23.50;;;;;5.81;100.00;103087.84;4971036;28;45344;-70
2023/01/23 06:14:17;;;;;;;;;40.25;23.00;;;;;5.78;100.00;103090.25;4990822;28;54407;-73
2023/01/23 06:16:42;;;;;;;;;23.25;12.50;;;;;5.75;100.00;103090.97;4975042;28;53160;-71
2023/01/23 06:19:08;;;;;;;;;19.75;16.00;;;;;5.77;100.00;103097.22;4969932;28;62600;-73
2023/01/23 06:21:34;;;;;;;;;24.75;22.50;;;;;5.76;100.00;103097.13;4974539;28;45460;-71
2023/01/23 06:24:00;;;;;;;;;27.00;22.00;;;;;5.75;100.00;103101.47;4976151;28;51378;-71
2023/01/23 06:26:25;;;;;;;;;24.75;20.75;;;;;5.76;100.00;103097.13;4975808;28;45488;-71
2023/01/23 06:28:50;;;;;;;;;27.50;16.75;;;;;5.76;100.00;103092.78;4977862;28;46473;-71
2023/01/23 06:31:16;;;;;;;;;29.50;22.00;;;;;5.77;100.00;103094.59;4976118;28;45396;-73
2023/01/23 06:33:41;;;;;;;;;27.00;19.50;;;;;5.77;100.00;103097.22;4975297;28;52459;-72
2023/01/23 06:36:07;;;;;;;;;32.00;23.00;;;;;5.78;100.00;103098.13;4972265;28;53975;-71
2023/01/23 06:38:33;;;;;;;;;29.50;22.50;;;;;5.74;100.00;103101.34;4978191;28;47153;-71
2023/01/23 06:40:58;;;;;;;;;34.25;22.75;;;;;5.73;100.00;103105.66;4976477;28;62170;-70
2023/01/23 06:43:24;;;;;;;;;34.00;25.75;;;;;5.70;100.00;103092.38;4975415;28;52284;-73
2023/01/23 06:45:49;;;;;;;;;27.50;18.50;;;;;5.70;100.00;103094.06;4973401;28;55566;-72
2023/01/23 06:48:15;;;;;;;;;32.00;26.50;;;;;5.71;100.00;103096.81;4973748;28;45798;-71
2023/01/23 06:50:41;;;;;;;;;32.00;26.00;;;;;5.71;100.00;103094.19;4975619;28;60969;-71
2023/01/23 06:53:07;;;;;;;;;28.75;23.50;;;;;5.72;100.00;103096.00;4981178;28;45523;-71
2023/01/23 06:55:33;;;;;;;;;31.00;21.75;;;;;5.72;100.00;103103.88;4975456;28;45849;-73
2023/01/23 06:57:58;;;;;;;;;28.00;22.50;;;;;5.74;100.00;103106.56;4975328;28;45436;-71
2023/01/23 07:00:24;;;;;;;;;35.00;26.33;;;;;5.72;100.00;103098.63;4975448;28;45444;-71
2023/01/23 07:02:50;;;;;;;;;36.50;27.00;;;;;5.70;100.00;103105.47;4977710;28;45394;-72
2023/01/23 07:05:15;;;;;;;;;35.50;27.75;;;;;5.68;100.00;103096.59;4973868;28;45271;-70
2023/01/23 07:07:41;;;;;;;;;44.00;30.00;;;;;5.66;100.00;103100.84;4976406;28;62950;-70
2023/01/23 07:10:07;;;;;;;;;38.75;26.50;;;;;5.69;100.00;103100.13;4970020;28;61017;-70
2023/01/23 07:12:32;;;;;;;;;26.50;21.00;;;;;5.70;100.00;103094.06;4977437;28;45443;-74
2023/01/23 07:14:57;;;;;;;;;24.00;22.00;;;;;5.71;100.00;103088.03;4971585;28;45750;-70
2023/01/23 07:17:23;;;;;;;;;31.25;24.50;;;;;5.68;100.00;103083.47;4972035;28;53043;-70
2023/01/23 07:19:49;;;;;;;;;27.50;18.25;;;;;5.65;100.00;103091.16;4971220;28;45482;-70
2023/01/23 07:22:19;;;;;;;;;33.75;27.75;;;;;5.65;100.00;103088.53;4966786;28;55617;-70
2023/01/23 07:24:44;;;;;;;;;29.25;19.25;;;;;5.61;100.00;103081.28;4970690;28;45699;-71
2023/01/23 07:27:09;;;;;;;;;25.50;22.50;;;;;5.57;100.00;103086.19;4977281;28;46426;-69
2023/01/23 07:29:35;;;;;;;;;30.25;21.25;;;;;5.56;100.00;103098.41;4980376;28;55338;-70
2023/01/23 07:32:00;;;;;;;;;35.25;26.75;;;;;5.53;100.00;103098.16;4967764;28;59584;-70
2023/01/23 07:34:26;;;;;;;;;33.75;30.00;;;;;5.54;100.00;103094.78;4966843;28;45667;-70
2023/01/23 07:36:51;;;;;;;;;33.75;25.25;;;;;5.56;100.00;103095.78;4973888;28;47518;-71
2023/01/23 07:39:17;;;;;;;;;25.25;20.25;;;;;5.57;100.00;103101.91;4972009;28;60342;-70
2023/01/23 07:41:42;;;;;;;;;44.50;27.50;;;;;5.59;100.00;103108.16;4970736;28;45513;-73
2023/01/23 07:44:15;;;;;;;;;48.75;27.25;;;;;5.60;100.00;103110.91;4982004;28;45465;-73
2023/01/23 07:46:40;;;;;;;;;33.00;24.50;;;;;5.60;100.00;103110.00;4971153;28;46697;-71
2023/01/23 07:49:06;;;;;;;;;37.25;25.00;;;;;5.61;100.00;103112.72;4973652;28;60944;-70
2023/01/23 07:51:31;;;;;;;;;29.00;23.75;;;;;5.61;100.00;103106.56;4971699;28;56686;-71
2023/01/23 07:53:56;;;;;;;;;37.50;26.75;;;;;5.63;100.00;103112.81;4972722;28;54845;-71
2023/01/23 07:56:22;;;;;;;;;49.75;26.50;;;;;5.65;100.00;103113.84;4982626;28;64175;-70
2023/01/23 07:58:50;;;;;;;;;38.75;27.75;;;;;5.67;100.00;103107.88;4972121;28;46752;-73
2023/01/23 08:01:16;;;;;;;;;46.75;29.75;;;;;5.69;100.00;103105.34;4974644;28;49858;-70
2023/01/23 08:03:41;;;;;;;;;38.00;27.75;;;;;5.69;100.00;103103.63;4973291;28;45440;-69
2023/01/23 08:06:07;;;;;;;;;34.00;22.50;;;;;5.70;100.00;103110.72;4969589;28;59598;-70
2023/01/23 08:08:32;;;;;;;;;33.25;24.25;;;;;5.69;100.00;103100.13;4974964;28;45491;-72
2023/01/23 08:10:58;;;;;;;;;35.50;24.75;;;;;5.65;100.00;103101.66;4975747;28;45470;-70
2023/01/23 08:13:23;;;;;;;;;24.00;18.25;;;;;5.67;100.00;103114.84;4974913;28;45361;-69
2023/01/23 08:15:48;;;;;;;;;22.00;21.25;;;;;5.69;100.00;103105.34;4973623;28;56494;-70
2023/01/23 08:18:14;;;;;;;;;26.25;21.50;;;;;5.71;100.00;103112.53;4977874;28;54863;-69
2023/01/23 08:20:39;;;;;;;;;25.75;21.00;;;;;5.73;100.00;103116.16;4974582;28;45447;-69
2023/01/23 08:23:04;;;;;;;;;27.00;21.00;;;;;5.75;100.00;103114.56;4975392;28;56256;-73
2023/01/23 08:25:30;;;;;;;;;20.75;12.00;;;;;5.77;100.00;103110.31;4977962;28;45679;-69
2023/01/23 08:27:55;;;;;;;;;26.50;23.75;;;;;5.80;100.00;103117.47;4974193;28;45646;-71
2023/01/23 08:30:21;;;;;;;;;30.50;23.25;;;;;5.82;100.00;103120.22;4970322;28;47846;-71
2023/01/23 08:32:46;;;;;;;;;30.25;21.00;;;;;5.82;100.00;103114.97;4974356;28;52710;-69
2023/01/23 08:35:11;;;;;;;;;32.50;26.75;;;;;5.81;100.00;103124.56;4968448;28;45986;-71
2023/01/23 08:37:37;;;;;;;;;40.00;22.50;;;;;5.79;100.00;103111.31;4974209;28;49751;-73
2023/01/23 08:40:03;;;;;;;;;41.00;27.25;;;;;5.80;100.00;103112.22;4970585;28;45423;-70
2023/01/23 08:42:28;;;;;;;;;32.75;23.25;;;;;5.81;100.00;103111.44;4974640;28;45307;-70
2023/01/23 08:44:54;;;;;;;;;16.75;15.00;;;;;5.85;100.00;103118.69;4974799;28;46404;-74
2023/01/23 08:47:20;;;;;;;;;31.75;24.75;;;;;5.89;100.00;103117.19;4973885;28;47133;-71
2023/01/23 08:49:45;;;;;;;;;29.50;22.00;;;;;5.92;100.00;103106.94;4979242;28;45395;-70
2023/01/23 08:52:11;;;;;;;;;31.25;21.00;;;;;5.97;100.00;103100.28;4977373;28;53018;-71
2023/01/23 08:54:36;;;;;;;;;24.50;21.00;;;;;6.00;100.00;103096.13;4978729;28;45579;-70
2023/01/23 08:57:02;;;;;;;;;39.50;21.75;;;;;6.05;100.00;103096.44;4969227;28;45444;-70
2023/01/23 08:59:27;;;;;;;;;23.00;18.50;;;;;6.10;100.00;103097.66;4971723;28;45516;-71
2023/01/23 09:01:53;;;;;;;;;22.50;20.75;;;;;6.12;100.00;103111.78;4973297;28;45472;-71
2023/01/23 09:04:18;;;;;;;;;33.00;23.25;;;;;6.14;100.00;103106.66;4972003;28;46603;-72
2023/01/23 09:06:43;;;;;;;;;33.00;23.50;;;;;6.14;100.00;103117.13;4976122;28;45381;-71
2023/01/23 09:09:09;;;;;;;;;29.00;26.75;;;;;6.15;100.00;103111.97;4975113;28;46628;-70
2023/01/23 09:11:34;;;;;;;;;27.25;20.75;;;;;6.19;100.00;103116.63;4972475;28;45498;-70
2023/01/23 09:14:00;;;;;;;;;23.50;19.00;;;;;6.25;100.00;103124.00;4973473;28;45650;-70
2023/01/23 09:16:25;;;;;;;;;31.25;23.50;;;;;6.27;100.00;103119.75;4973803;28;45533;-73
2023/01/23 09:18:50;;;;;;;;;35.75;20.25;;;;;6.30;100.00;103117.31;4972808;28;53536;-72
2023/01/23 09:21:16;;;;;;;;;29.75;22.00;;;;;6.35;100.00;103129.03;4977000;28;45436;-72
2023/01/23 09:23:42;;;;;;;;;29.75;24.00;;;;;6.35;100.00;103129.03;4972860;28;45549;-70
2023/01/23 09:26:09;;;;;;;;;30.00;24.75;;;;;6.38;100.00;103123.06;4973472;28;45525;-71
2023/01/23 09:28:36;;;;;;;;;34.25;29.25;;;;;6.37;100.00;103130.03;4977358;28;45548;-69
2023/01/23 09:31:06;;;;;;;;;25.50;21.00;;;;;6.41;100.00;103125.91;4973221;28;45531;-70
2023/01/23 09:33:32;;;;;;;;;35.00;22.00;;;;;6.44;100.00;103129.59;4975928;28;46540;-72
2023/01/23 09:35:57;;;;;;;;;34.00;25.75;;;;;6.48;100.00;103138.59;4974152;28;45767;-69
2023/01/23 09:38:23;;;;;;;;;26.25;20.50;;;;;6.49;100.00;103140.41;4974454;28;45548;-70
2023/01/23 09:40:51;;;;;;;;;22.50;17.75;;;;;6.51;100.00;103146.69;4975581;28;45533;-70
2023/01/23 09:43:31;;;;;;;;;30.00;25.50;;;;;6.55;100.00;103151.28;4973142;28;46474;-70
2023/01/23 09:46:08;;;;;;;;;30.50;20.00;;;;;6.57;100.00;103160.19;4972181;28;45480;-71
2023/01/23 09:48:45;;;;;;;;;26.25;21.00;;;;;6.58;100.00;103154.13;4975647;28;45416;-69
2023/01/23 09:51:24;;;;;;;;;31.00;22.50;;;;;6.58;100.00;103151.50;4971628;28;45682;-70
2023/01/23 09:53:51;;;;;;;;;27.00;19.00;;;;;6.60;100.00;103157.75;4976653;28;47687;-71
2023/01/23 09:56:40;;;;;;;;;24.00;15.00;;;;;6.64;100.00;103164.13;4967516;28;45425;-73
2023/01/23 09:59:09;;;;;;;;;21.75;18.25;;;;;6.66;100.00;103162.47;4977960;28;45490;-71
2023/01/23 10:01:35;;;;;;;;;32.25;21.25;;;;;6.68;100.00;103164.41;5083714;22;45891;-71
2023/01/23 10:04:02;;;;;;;;;23.75;17.75;;;;;6.71;100.00;103171.56;4995700;28;46463;-72
2023/01/23 10:06:30;;;;;;;;;23.75;18.75;;;;;6.71;100.00;103168.94;4994997;28;45341;-73
2023/01/23 10:09:07;;;;;;;;;22.25;15.50;;;;;6.73;100.00;103173.50;4993650;28;45279;-71
2023/01/23 10:11:44;;;;;;;;;21.25;13.50;;;;;6.73;100.00;103175.22;4991926;28;45535;-71
2023/01/23 10:14:40;;;;;;;;;26.00;17.00;;;;;6.74;100.00;103177.03;4995706;28;45858;-71
2023/01/23 10:17:46;;;;;;;;;22.75;21.00;;;;;6.77;100.00;103178.13;4997367;28;45508;-73
2023/01/23 10:20:21;;;;;;;;;26.50;22.50;;;;;6.79;100.00;103184.38;5012954;28;45551;-72
2023/01/23 10:22:54;;;;;;;;;22.50;16.75;;;;;6.82;100.00;103171.47;5009923;28;45364;-73
2023/01/23 10:25:26;;;;;;;;;34.75;23.00;;;;;6.85;100.00;103169.84;4990011;28;46337;-73
2023/01/23 10:27:56;;;;;;;;;28.50;21.50;;;;;6.88;100.00;103172.66;4994923;28;45297;-71
2023/01/23 10:30:21;;;;;;;;;26.75;19.00;;;;;6.88;100.00;103175.28;4993383;28;45544;-71
2023/01/23 10:32:51;;;;;;;;;28.00;18.00;;;;;6.86;100.00;103175.16;4996338;28;46958;-73
2023/01/23 10:35:28;;;;;;;;;22.50;18.00;;;;;6.82;100.00;103160.97;4996620;28;46753;-73
2023/01/23 10:38:09;;;;;;;;;28.00;22.50;;;;;6.84;100.00;103171.56;4996172;28;45567;-72
2023/01/23 10:43:20;;;;;;;;;26.00;22.25;;;;;6.83;100.00;103185.50;4997083;28;45586;-71
2023/01/23 10:45:46;;;;;;;;;26.00;17.75;;;;;6.81;100.00;103169.63;4995005;28;46607;-71
2023/01/23 10:48:30;;;;;;;;;25.25;19.75;;;;;6.83;100.00;103175.00;4997068;28;45533;-71
2023/01/23 10:50:57;;;;;;;;;28.75;21.25;;;;;6.85;100.00;103177.72;4997970;28;45456;-72
2023/01/23 10:53:24;;;;;;;;;20.25;16.25;;;;;6.85;100.00;103169.84;4996501;28;45704;-71
2023/01/23 10:55:50;;;;;;;;;21.75;18.75;;;;;6.86;100.00;103167.28;4995225;28;46482;-71
2023/01/23 10:58:35;;;;;;;;;22.25;14.75;;;;;6.89;100.00;103172.75;4995703;28;45472;-73
2023/01/23 11:01:01;;;;;;;;;30.25;22.75;;;;;6.90;100.00;103166.69;4995621;28;45518;-71
2023/01/23 11:03:34;;;;;;;;;33.25;21.75;;;;;6.91;100.00;103152.72;4998361;28;45622;-71
2023/01/23 11:06:03;;;;;;;;;26.50;18.75;;;;;6.95;100.00;103153.84;4993193;28;46554;-72
2023/01/23 11:08:34;;;;;;;;;25.50;21.00;;;;;6.97;100.00;103149.59;4997456;28;45365;-71
2023/01/23 11:11:15;;;;;;;;;25.00;19.50;;;;;7.02;100.00;103148.16;4995883;28;45607;-71
2023/01/23 11:13:46;;;;;;;;;27.00;22.00;;;;;7.03;100.00;103139.47;4998069;28;45499;-71
2023/01/23 11:16:19;;;;;;;;;36.00;22.50;;;;;7.07;100.00;103139.75;4997579;28;45986;-73
2023/01/23 11:18:52;;;;;;;;;23.00;19.00;;;;;7.13;100.00;103140.94;5000742;28;45387;-72